createdAt,value
2018-06-23T00:00:21.634Z,21.10
2018-06-23T00:00:53.349Z,21.10
2018-06-23T00:01:25.059Z,21.10
2018-06-23T00:01:56.770Z,21.10
2018-06-23T00:02:28.489Z,21.10
2018-06-23T00:03:00.221Z,21.10
2018-06-23T00:03:31.959Z,21.20
2018-06-23T00:04:03.661Z,21.10
2018-06-23T00:04:35.387Z,21.20
2018-06-23T00:05:07.160Z,21.10
2018-06-23T00:05:38.871Z,21.10
2018-06-23T00:06:10.614Z,21.10
2018-06-23T00:06:42.359Z,21.10
2018-06-23T00:07:14.078Z,21.10
2018-06-23T00:07:45.822Z,21.10
2018-06-23T00:08:17.515Z,21.20
2018-06-23T00:08:49.257Z,21.20
2018-06-23T00:09:21.022Z,21.20
2018-06-23T00:09:52.720Z,21.10
2018-06-23T00:10:24.446Z,21.10
2018-06-23T00:10:56.196Z,21.10
2018-06-23T00:11:27.921Z,21.10
2018-06-23T00:11:59.638Z,21.20
2018-06-23T00:12:31.379Z,21.20
2018-06-23T00:13:03.094Z,21.10
2018-06-23T00:13:34.812Z,21.10
2018-06-23T00:14:06.539Z,21.10
2018-06-23T00:14:38.242Z,21.10
2018-06-23T00:15:09.972Z,21.10
2018-06-23T00:15:41.719Z,21.10
2018-06-23T00:16:13.436Z,21.10
2018-06-23T00:16:45.175Z,21.10
2018-06-23T00:17:16.906Z,21.10
2018-06-23T00:17:48.610Z,21.10
2018-06-23T00:18:20.327Z,21.10
2018-06-23T00:18:52.036Z,21.10
2018-06-23T00:19:23.773Z,21.10
2018-06-23T00:19:55.483Z,21.10
2018-06-23T00:20:27.194Z,21.10
2018-06-23T00:20:58.953Z,21.10
2018-06-23T00:21:30.647Z,21.10
2018-06-23T00:22:02.375Z,21.10
2018-06-23T00:22:34.158Z,21.10
2018-06-23T00:23:05.862Z,21.10
2018-06-23T00:23:37.592Z,21.10
2018-06-23T00:24:09.355Z,21.10
2018-06-23T00:24:41.074Z,21.10
2018-06-23T00:25:12.778Z,21.10
2018-06-23T00:25:44.564Z,21.10
2018-06-23T00:26:16.302Z,21.10
2018-06-23T00:26:48.080Z,21.10
2018-06-23T00:27:19.796Z,21.20
2018-06-23T00:27:51.513Z,21.10
2018-06-23T00:28:23.226Z,21.10
2018-06-23T00:28:54.966Z,21.10
2018-06-23T00:29:26.669Z,21.10
2018-06-23T00:29:58.391Z,21.10
2018-06-23T00:30:30.122Z,21.10
2018-06-23T00:31:01.848Z,21.10
2018-06-23T00:31:33.558Z,21.10
2018-06-23T00:32:05.262Z,21.10
2018-06-23T00:32:36.990Z,21.10
2018-06-23T00:33:08.733Z,21.10
2018-06-23T00:33:40.454Z,21.10
2018-06-23T00:34:12.214Z,21.10
2018-06-23T00:34:43.934Z,21.10
2018-06-23T00:35:15.659Z,21.10
2018-06-23T00:35:47.376Z,21.10
2018-06-23T00:36:19.074Z,21.10
2018-06-23T00:36:50.815Z,21.10
2018-06-23T00:37:22.546Z,21.10
2018-06-23T00:37:54.247Z,21.20
2018-06-23T00:38:25.953Z,21.10
2018-06-23T00:38:57.700Z,21.10
2018-06-23T00:39:29.405Z,21.10
2018-06-23T00:40:01.120Z,21.10
2018-06-23T00:40:32.860Z,21.10
2018-06-23T00:41:04.579Z,21.20
2018-06-23T00:41:36.319Z,21.10
2018-06-23T00:42:08.088Z,21.10
2018-06-23T00:42:39.781Z,21.10
2018-06-23T00:43:11.491Z,21.10
2018-06-23T00:43:43.217Z,21.20
2018-06-23T00:44:14.945Z,21.10
2018-06-23T00:44:46.680Z,21.10
2018-06-23T00:45:18.397Z,21.10
2018-06-23T00:45:50.121Z,21.10
2018-06-23T00:46:21.840Z,21.10
2018-06-23T00:46:53.559Z,21.10
2018-06-23T00:47:25.274Z,21.10
2018-06-23T00:47:57.002Z,21.10
2018-06-23T00:48:28.807Z,21.10
2018-06-23T00:49:00.502Z,21.20
2018-06-23T00:49:32.270Z,21.20
2018-06-23T00:50:03.977Z,21.20
2018-06-23T00:50:35.732Z,21.10
2018-06-23T00:51:07.459Z,21.20
2018-06-23T00:51:39.186Z,21.10
2018-06-23T00:52:10.913Z,21.10
2018-06-23T00:52:42.657Z,21.10
2018-06-23T00:53:14.374Z,21.10
2018-06-23T00:53:46.102Z,21.10
2018-06-23T00:54:17.814Z,21.10
2018-06-23T00:54:49.536Z,21.10
2018-06-23T00:55:21.251Z,21.20
2018-06-23T00:55:52.964Z,21.20
2018-06-23T00:56:24.680Z,21.20
2018-06-23T00:56:56.433Z,21.10
2018-06-23T00:57:28.182Z,21.10
2018-06-23T00:57:59.871Z,21.10
2018-06-23T00:58:31.621Z,21.10
2018-06-23T00:59:03.314Z,21.10
2018-06-23T00:59:35.032Z,21.10
2018-06-23T01:00:06.744Z,21.20
2018-06-23T01:00:38.490Z,21.10
2018-06-23T01:01:10.213Z,21.20
2018-06-23T01:01:41.942Z,21.20
2018-06-23T01:02:13.671Z,21.10
2018-06-23T01:02:45.423Z,21.10
2018-06-23T01:03:17.142Z,21.10
2018-06-23T01:03:48.899Z,21.10
2018-06-23T01:04:20.620Z,21.10
2018-06-23T01:04:52.362Z,21.10
2018-06-23T01:05:24.097Z,21.10
2018-06-23T01:05:55.876Z,21.10
2018-06-23T01:06:27.550Z,21.10
2018-06-23T01:06:59.253Z,21.10
2018-06-23T01:07:30.990Z,21.10
2018-06-23T01:08:02.715Z,21.10
2018-06-23T01:08:34.414Z,21.10
2018-06-23T01:09:06.143Z,21.10
2018-06-23T01:09:37.857Z,21.10
2018-06-23T01:10:09.575Z,21.10
2018-06-23T01:10:41.353Z,21.10
2018-06-23T01:11:13.073Z,21.10
2018-06-23T01:11:44.794Z,21.10
2018-06-23T01:12:16.509Z,21.10
2018-06-23T01:12:48.238Z,21.10
2018-06-23T01:13:19.974Z,21.10
2018-06-23T01:13:51.654Z,21.10
2018-06-23T01:14:23.364Z,21.10
2018-06-23T01:14:55.078Z,21.10
2018-06-23T01:15:26.793Z,21.10
2018-06-23T01:15:58.505Z,21.10
2018-06-23T01:16:30.235Z,21.10
2018-06-23T01:17:01.952Z,21.10
2018-06-23T01:17:33.664Z,21.10
2018-06-23T01:18:05.399Z,21.10
2018-06-23T01:18:37.109Z,21.10
2018-06-23T01:19:08.830Z,21.10
2018-06-23T01:19:40.557Z,21.10
2018-06-23T01:20:12.286Z,21.20
2018-06-23T01:20:43.987Z,21.10
2018-06-23T01:21:15.722Z,21.20
2018-06-23T01:21:47.458Z,21.10
2018-06-23T01:22:19.185Z,21.10
2018-06-23T01:22:50.924Z,21.20
2018-06-23T01:23:22.634Z,21.20
2018-06-23T01:23:54.341Z,21.20
2018-06-23T01:24:26.067Z,21.20
2018-06-23T01:24:57.807Z,21.10
2018-06-23T01:25:29.497Z,21.20
2018-06-23T01:26:01.226Z,21.10
2018-06-23T01:26:32.958Z,21.20
2018-06-23T01:27:04.769Z,21.10
2018-06-23T01:27:36.516Z,21.10
2018-06-23T01:28:08.341Z,21.10
2018-06-23T01:28:40.050Z,21.10
2018-06-23T01:29:11.769Z,21.10
2018-06-23T01:29:43.507Z,21.10
2018-06-23T01:30:15.241Z,21.10
2018-06-23T01:30:46.962Z,21.10
2018-06-23T01:31:18.681Z,21.10
2018-06-23T01:31:50.414Z,21.10
2018-06-23T01:32:22.191Z,21.10
2018-06-23T01:32:53.920Z,21.10
2018-06-23T01:33:25.599Z,21.10
2018-06-23T01:33:57.329Z,21.10
2018-06-23T01:34:29.057Z,21.10
2018-06-23T01:35:00.811Z,21.20
2018-06-23T01:35:32.549Z,21.10
2018-06-23T01:36:04.283Z,21.20
2018-06-23T01:36:35.981Z,21.10
2018-06-23T01:37:07.710Z,21.20
2018-06-23T01:37:39.430Z,21.20
2018-06-23T01:38:11.133Z,21.20
2018-06-23T01:38:42.862Z,21.20
2018-06-23T01:39:14.574Z,21.10
2018-06-23T01:39:46.286Z,21.20
2018-06-23T01:40:18.018Z,21.10
2018-06-23T01:40:49.744Z,21.10
2018-06-23T01:41:21.444Z,21.10
2018-06-23T01:41:53.154Z,21.10
2018-06-23T01:42:24.893Z,21.10
2018-06-23T01:42:56.606Z,21.10
2018-06-23T01:43:28.332Z,21.10
2018-06-23T01:44:00.037Z,21.10
2018-06-23T01:44:31.754Z,21.10
2018-06-23T01:45:03.461Z,21.10
2018-06-23T01:45:35.194Z,21.10
2018-06-23T01:46:06.901Z,21.10
2018-06-23T01:46:38.625Z,21.10
2018-06-23T01:47:10.326Z,21.10
2018-06-23T01:47:42.051Z,21.10
2018-06-23T01:48:13.777Z,21.10
2018-06-23T01:48:45.498Z,21.10
2018-06-23T01:49:17.215Z,21.10
2018-06-23T01:49:48.957Z,21.10
2018-06-23T01:50:20.644Z,21.10
2018-06-23T01:50:52.353Z,21.10
2018-06-23T01:51:24.085Z,21.10
2018-06-23T01:51:55.809Z,21.10
2018-06-23T01:52:27.529Z,21.10
2018-06-23T01:52:59.242Z,21.10
2018-06-23T01:53:30.958Z,21.10
2018-06-23T01:54:02.704Z,21.10
2018-06-23T01:54:34.406Z,21.10
2018-06-23T01:55:06.129Z,21.10
2018-06-23T01:55:37.843Z,21.10
2018-06-23T01:56:09.551Z,21.10
2018-06-23T01:56:41.297Z,21.10
2018-06-23T01:57:13.017Z,21.10
2018-06-23T01:57:44.740Z,21.10
2018-06-23T01:58:16.472Z,21.10
2018-06-23T01:58:48.168Z,21.00
2018-06-23T01:59:19.870Z,21.10
2018-06-23T01:59:51.584Z,21.10
2018-06-23T02:00:23.286Z,21.10
2018-06-23T02:00:55.006Z,21.00
2018-06-23T02:01:26.835Z,21.10
2018-06-23T02:01:58.539Z,21.10
2018-06-23T02:02:30.273Z,21.00
2018-06-23T02:03:01.973Z,21.10
2018-06-23T02:03:33.683Z,21.10
2018-06-23T02:04:05.424Z,21.00
2018-06-23T02:04:37.132Z,21.10
2018-06-23T02:05:08.856Z,21.10
2018-06-23T02:05:40.557Z,21.00
2018-06-23T02:06:12.276Z,21.10
2018-06-23T02:06:43.991Z,21.10
2018-06-23T02:07:15.702Z,21.10
2018-06-23T02:07:47.419Z,21.10
2018-06-23T02:08:19.165Z,21.10
2018-06-23T02:08:50.894Z,21.10
2018-06-23T02:09:22.619Z,21.10
2018-06-23T02:09:54.342Z,21.10
2018-06-23T02:10:26.283Z,21.10
2018-06-23T02:10:57.983Z,21.10
2018-06-23T02:11:29.686Z,21.00
2018-06-23T02:12:01.406Z,21.10
2018-06-23T02:12:33.109Z,21.10
2018-06-23T02:13:04.842Z,21.10
2018-06-23T02:13:36.559Z,21.10
2018-06-23T02:14:08.261Z,21.10
2018-06-23T02:14:40.019Z,21.10
2018-06-23T02:15:11.697Z,21.10
2018-06-23T02:15:43.424Z,21.10
2018-06-23T02:16:15.164Z,21.10
2018-06-23T02:16:46.881Z,21.10
2018-06-23T02:17:18.590Z,21.10
2018-06-23T02:17:50.303Z,21.10
2018-06-23T02:18:22.015Z,21.10
2018-06-23T02:18:53.718Z,21.10
2018-06-23T02:19:25.429Z,21.10
2018-06-23T02:19:57.142Z,21.10
2018-06-23T02:20:28.854Z,21.10
2018-06-23T02:21:00.574Z,21.10
2018-06-23T02:21:32.326Z,21.10
2018-06-23T02:22:04.023Z,21.10
2018-06-23T02:22:35.757Z,21.10
2018-06-23T02:23:07.479Z,21.10
2018-06-23T02:23:39.200Z,21.10
2018-06-23T02:24:10.906Z,21.10
2018-06-23T02:24:42.628Z,21.10
2018-06-23T02:25:14.335Z,21.10
2018-06-23T02:25:46.058Z,21.10
2018-06-23T02:26:17.774Z,21.10
2018-06-23T02:26:49.498Z,21.10
2018-06-23T02:27:21.220Z,21.10
2018-06-23T02:27:52.941Z,21.10
2018-06-23T02:28:24.654Z,21.10
2018-06-23T02:28:56.358Z,21.10
2018-06-23T02:29:28.067Z,21.10
2018-06-23T02:29:59.791Z,21.10
2018-06-23T02:30:31.497Z,21.10
2018-06-23T02:31:03.215Z,21.10
2018-06-23T02:31:34.934Z,21.10
2018-06-23T02:32:06.684Z,21.10
2018-06-23T02:32:38.414Z,21.10
2018-06-23T02:33:10.114Z,21.10
2018-06-23T02:33:41.891Z,21.10
2018-06-23T02:34:13.612Z,21.10
2018-06-23T02:34:45.344Z,21.10
2018-06-23T02:35:17.073Z,21.10
2018-06-23T02:35:48.825Z,21.10
2018-06-23T02:36:20.560Z,21.10
2018-06-23T02:36:52.269Z,21.10
2018-06-23T02:37:23.998Z,21.10
2018-06-23T02:37:55.711Z,21.10
2018-06-23T02:38:27.436Z,21.10
2018-06-23T02:38:59.142Z,21.10
2018-06-23T02:39:30.869Z,21.10
2018-06-23T02:40:02.578Z,21.10
2018-06-23T02:40:34.301Z,21.10
2018-06-23T02:41:06.045Z,21.10
2018-06-23T02:41:37.765Z,21.10
2018-06-23T02:42:09.473Z,21.10
2018-06-23T02:42:41.198Z,21.10
2018-06-23T02:43:12.923Z,21.10
2018-06-23T02:43:44.641Z,21.10
2018-06-23T02:44:16.378Z,21.10
2018-06-23T02:44:48.101Z,21.00
2018-06-23T02:45:19.822Z,21.10
2018-06-23T02:45:51.558Z,21.10
2018-06-23T02:46:23.274Z,21.10
2018-06-23T02:46:55.008Z,21.10
2018-06-23T02:47:26.722Z,21.10
2018-06-23T02:47:58.433Z,21.10
2018-06-23T02:48:30.159Z,21.00
2018-06-23T02:49:01.887Z,21.10
2018-06-23T02:49:33.609Z,21.00
2018-06-23T02:50:05.336Z,21.10
2018-06-23T02:50:37.037Z,21.10
2018-06-23T02:51:08.752Z,21.10
2018-06-23T02:51:40.469Z,21.10
2018-06-23T02:52:12.170Z,21.10
2018-06-23T02:52:43.906Z,21.10
2018-06-23T02:53:15.652Z,21.10
2018-06-23T02:53:47.435Z,21.10
2018-06-23T02:54:19.166Z,21.10
2018-06-23T02:54:50.901Z,21.00
2018-06-23T02:55:22.593Z,21.10
2018-06-23T02:55:54.312Z,21.10
2018-06-23T02:56:26.068Z,21.10
2018-06-23T02:56:57.770Z,21.10
2018-06-23T02:57:29.491Z,21.10
2018-06-23T02:58:01.220Z,21.00
2018-06-23T02:58:32.942Z,21.00
2018-06-23T02:59:04.669Z,21.10
2018-06-23T02:59:36.392Z,21.10
2018-06-23T03:00:08.128Z,21.10
2018-06-23T03:00:39.864Z,21.10
2018-06-23T03:01:11.598Z,21.10
2018-06-23T03:01:43.320Z,21.10
2018-06-23T03:02:15.050Z,21.10
2018-06-23T03:02:46.764Z,21.10
2018-06-23T03:03:18.506Z,21.10
2018-06-23T03:03:50.212Z,21.10
2018-06-23T03:04:21.951Z,21.10
2018-06-23T03:04:53.682Z,21.10
2018-06-23T03:05:25.382Z,21.10
2018-06-23T03:05:57.151Z,21.10
2018-06-23T03:06:28.882Z,21.10
2018-06-23T03:07:00.587Z,21.10
2018-06-23T03:07:32.356Z,21.10
2018-06-23T03:08:04.086Z,21.10
2018-06-23T03:08:35.773Z,21.10
2018-06-23T03:09:07.485Z,21.10
2018-06-23T03:09:39.232Z,21.00
2018-06-23T03:10:10.928Z,21.10
2018-06-23T03:10:42.657Z,21.10
2018-06-23T03:11:14.403Z,21.00
2018-06-23T03:11:46.109Z,21.10
2018-06-23T03:12:17.848Z,21.10
2018-06-23T03:12:49.583Z,21.00
2018-06-23T03:13:21.299Z,21.10
2018-06-23T03:14:24.987Z,21.10
2018-06-23T03:14:56.726Z,21.10
2018-06-23T03:15:28.441Z,21.00
2018-06-23T03:16:00.162Z,21.00
2018-06-23T03:16:31.898Z,21.00
2018-06-23T03:17:03.619Z,21.10
2018-06-23T03:18:07.315Z,21.00
2018-06-23T03:18:39.027Z,21.10
2018-06-23T03:19:10.770Z,21.00
2018-06-23T03:19:42.458Z,21.00
2018-06-23T03:20:14.191Z,21.00
2018-06-23T03:20:45.914Z,21.00
2018-06-23T03:21:17.633Z,21.00
2018-06-23T03:21:49.367Z,21.00
2018-06-23T03:22:21.086Z,21.00
2018-06-23T03:22:52.803Z,21.10
2018-06-23T03:23:24.532Z,21.10
2018-06-23T03:23:56.254Z,21.00
2018-06-23T03:24:27.969Z,21.10
2018-06-23T03:24:59.702Z,21.10
2018-06-23T03:25:31.436Z,21.00
2018-06-23T03:26:35.121Z,21.00
2018-06-23T03:27:06.901Z,21.00
2018-06-23T03:27:38.631Z,21.00
2018-06-23T03:28:10.338Z,21.00
2018-06-23T03:28:42.067Z,21.00
2018-06-23T03:29:13.782Z,21.00
2018-06-23T03:29:45.493Z,21.00
2018-06-23T03:30:17.229Z,21.00
2018-06-23T03:30:48.957Z,21.00
2018-06-23T03:31:20.657Z,21.00
2018-06-23T03:31:52.379Z,21.00
2018-06-23T03:32:24.088Z,21.10
2018-06-23T03:32:55.803Z,21.00
2018-06-23T03:33:27.512Z,21.00
2018-06-23T03:33:59.223Z,21.00
2018-06-23T03:34:30.975Z,21.00
2018-06-23T03:35:02.669Z,21.00
2018-06-23T03:35:34.374Z,21.00
2018-06-23T03:36:06.089Z,21.00
2018-06-23T03:36:37.796Z,21.00
2018-06-23T03:37:09.519Z,21.00
2018-06-23T03:37:41.252Z,21.00
2018-06-23T03:38:12.949Z,21.00
2018-06-23T03:38:44.674Z,21.00
2018-06-23T03:39:16.380Z,21.00
2018-06-23T03:39:48.090Z,21.00
2018-06-23T03:40:19.805Z,21.00
2018-06-23T03:40:51.498Z,21.00
2018-06-23T03:41:23.229Z,21.10
2018-06-23T03:41:54.978Z,21.10
2018-06-23T03:42:26.694Z,21.10
2018-06-23T03:42:58.405Z,21.10
2018-06-23T03:43:30.124Z,21.00
2018-06-23T03:44:01.850Z,21.10
2018-06-23T03:44:33.568Z,21.10
2018-06-23T03:45:05.291Z,21.10
2018-06-23T03:45:37.003Z,21.10
2018-06-23T03:46:08.736Z,21.10
2018-06-23T03:46:40.457Z,21.10
2018-06-23T03:47:12.159Z,21.10
2018-06-23T03:47:43.876Z,21.10
2018-06-23T03:48:15.605Z,21.10
2018-06-23T03:48:47.309Z,21.10
2018-06-23T03:49:19.022Z,21.10
2018-06-23T03:49:50.745Z,21.10
2018-06-23T03:50:22.473Z,21.10
2018-06-23T03:50:54.185Z,21.10
2018-06-23T03:51:25.896Z,21.10
2018-06-23T03:51:57.599Z,21.10
2018-06-23T03:52:29.343Z,21.10
2018-06-23T03:53:01.103Z,21.10
2018-06-23T03:53:32.818Z,21.10
2018-06-23T03:54:04.564Z,21.10
2018-06-23T03:54:36.280Z,21.20
2018-06-23T03:55:07.979Z,21.10
2018-06-23T03:55:39.783Z,21.20
2018-06-23T03:56:11.494Z,21.20
2018-06-23T03:56:43.205Z,21.20
2018-06-23T03:57:14.921Z,21.20
2018-06-23T03:57:46.655Z,21.20
2018-06-23T03:58:18.383Z,21.20
2018-06-23T03:58:50.092Z,21.20
2018-06-23T03:59:21.846Z,21.20
2018-06-23T03:59:53.602Z,21.20
2018-06-23T04:00:25.284Z,21.20
2018-06-23T04:00:57.040Z,21.20
2018-06-23T04:01:28.748Z,21.20
2018-06-23T04:02:00.466Z,21.20
2018-06-23T04:02:32.186Z,21.20
2018-06-23T04:03:03.943Z,21.30
2018-06-23T04:03:35.621Z,21.20
2018-06-23T04:04:07.343Z,21.20
2018-06-23T04:04:39.070Z,21.20
2018-06-23T04:05:10.791Z,21.20
2018-06-23T04:05:42.516Z,21.20
2018-06-23T04:06:14.230Z,21.20
2018-06-23T04:06:45.942Z,21.30
2018-06-23T04:07:17.658Z,21.20
2018-06-23T04:07:49.390Z,21.20
2018-06-23T04:08:21.127Z,21.20
2018-06-23T04:08:52.836Z,21.30
2018-06-23T04:09:24.549Z,21.20
2018-06-23T04:09:56.257Z,21.20
2018-06-23T04:10:27.981Z,21.20
2018-06-23T04:10:59.674Z,21.20
2018-06-23T04:11:31.428Z,21.20
2018-06-23T04:12:03.147Z,21.30
2018-06-23T04:12:34.867Z,21.30
2018-06-23T04:13:06.601Z,21.30
2018-06-23T04:13:38.310Z,21.30
2018-06-23T04:14:10.029Z,21.30
2018-06-23T04:14:41.750Z,21.30
2018-06-23T04:15:13.467Z,21.30
2018-06-23T04:15:45.189Z,21.30
2018-06-23T04:16:16.934Z,21.40
2018-06-23T04:16:48.667Z,21.40
2018-06-23T04:17:20.435Z,21.40
2018-06-23T04:17:52.123Z,21.40
2018-06-23T04:18:23.835Z,21.40
2018-06-23T04:18:55.557Z,21.40
2018-06-23T04:19:27.276Z,21.40
2018-06-23T04:19:58.981Z,21.40
2018-06-23T04:20:30.714Z,21.30
2018-06-23T04:21:02.425Z,21.30
2018-06-23T04:21:34.179Z,21.30
2018-06-23T04:22:05.878Z,21.30
2018-06-23T04:22:37.605Z,21.40
2018-06-23T04:23:09.334Z,21.40
2018-06-23T04:23:41.076Z,21.30
2018-06-23T04:24:12.807Z,21.30
2018-06-23T04:24:44.543Z,21.30
2018-06-23T04:25:16.276Z,21.30
2018-06-23T04:25:47.987Z,21.30
2018-06-23T04:26:19.720Z,21.30
2018-06-23T04:26:51.455Z,21.30
2018-06-23T04:27:23.160Z,21.30
2018-06-23T04:27:54.878Z,21.30
2018-06-23T04:28:26.589Z,21.30
2018-06-23T04:28:58.325Z,21.30
2018-06-23T04:29:30.043Z,21.30
2018-06-23T04:30:01.777Z,21.30
2018-06-23T04:30:33.481Z,21.30
2018-06-23T04:31:05.190Z,21.30
2018-06-23T04:31:36.909Z,21.30
2018-06-23T04:32:08.625Z,21.30
2018-06-23T04:32:40.355Z,21.30
2018-06-23T04:33:12.182Z,21.30
2018-06-23T04:33:43.854Z,21.30
2018-06-23T04:34:15.570Z,21.30
2018-06-23T04:34:47.304Z,21.30
2018-06-23T04:35:19.037Z,21.30
2018-06-23T04:35:50.781Z,21.30
2018-06-23T04:36:22.540Z,21.30
2018-06-23T04:36:54.210Z,21.30
2018-06-23T04:37:25.918Z,21.30
2018-06-23T04:37:57.648Z,21.30
2018-06-23T04:38:29.368Z,21.30
2018-06-23T04:39:01.105Z,21.30
2018-06-23T04:39:32.923Z,21.30
2018-06-23T04:40:04.603Z,21.30
2018-06-23T04:40:36.316Z,21.30
2018-06-23T04:41:08.025Z,21.30
2018-06-23T04:41:39.737Z,21.30
2018-06-23T04:42:11.473Z,21.30
2018-06-23T04:42:43.209Z,21.30
2018-06-23T04:43:14.920Z,21.30
2018-06-23T04:43:46.698Z,21.30
2018-06-23T04:44:18.404Z,21.30
2018-06-23T04:44:50.119Z,21.30
2018-06-23T04:45:21.828Z,21.30
2018-06-23T04:45:53.533Z,21.30
2018-06-23T04:46:25.255Z,21.30
2018-06-23T04:46:56.965Z,21.30
2018-06-23T04:47:28.697Z,21.30
2018-06-23T04:48:00.432Z,21.30
2018-06-23T04:48:32.129Z,21.30
2018-06-23T04:49:03.866Z,21.30
2018-06-23T04:49:35.608Z,21.30
2018-06-23T04:50:07.331Z,21.30
2018-06-23T04:50:39.060Z,21.30
2018-06-23T04:51:10.812Z,21.30
2018-06-23T04:51:42.521Z,21.30
2018-06-23T04:52:14.262Z,21.30
2018-06-23T04:52:46.017Z,21.30
2018-06-23T04:53:17.733Z,21.30
2018-06-23T04:53:49.462Z,21.30
2018-06-23T04:54:21.189Z,21.30
2018-06-23T04:54:52.908Z,21.30
2018-06-23T04:55:24.627Z,21.30
2018-06-23T04:55:56.348Z,21.30
2018-06-23T04:56:28.088Z,21.30
2018-06-23T04:56:59.834Z,21.30
2018-06-23T04:57:31.576Z,21.30
2018-06-23T04:58:03.300Z,21.30
2018-06-23T04:58:35.017Z,21.30
2018-06-23T04:59:06.740Z,21.30
2018-06-23T04:59:38.453Z,21.30
2018-06-23T05:00:10.239Z,21.40
2018-06-23T05:00:41.962Z,21.30
2018-06-23T05:01:13.681Z,21.30
2018-06-23T05:02:17.426Z,21.30
2018-06-23T05:02:49.163Z,21.30
2018-06-23T05:03:20.874Z,21.30
2018-06-23T05:03:52.585Z,21.30
2018-06-23T05:04:24.319Z,21.30
2018-06-23T05:04:56.042Z,21.30
2018-06-23T05:05:27.775Z,21.30
2018-06-23T05:05:59.523Z,21.30
2018-06-23T05:06:31.230Z,21.30
2018-06-23T05:07:02.955Z,21.30
2018-06-23T05:07:34.654Z,21.30
2018-06-23T05:08:06.374Z,21.30
2018-06-23T05:08:38.095Z,21.30
2018-06-23T05:09:09.808Z,21.30
2018-06-23T05:09:41.515Z,21.30
2018-06-23T05:10:13.283Z,21.30
2018-06-23T05:10:44.991Z,21.30
2018-06-23T05:11:16.711Z,21.30
2018-06-23T05:11:48.480Z,21.30
2018-06-23T05:12:20.173Z,21.30
2018-06-23T05:12:51.909Z,21.30
2018-06-23T05:13:23.656Z,21.30
2018-06-23T05:13:55.363Z,21.30
2018-06-23T05:14:27.075Z,21.30
2018-06-23T05:14:58.794Z,21.30
2018-06-23T05:15:30.525Z,21.30
2018-06-23T05:16:02.266Z,21.30
2018-06-23T05:16:34.022Z,21.40
2018-06-23T05:17:05.763Z,21.40
2018-06-23T05:17:37.470Z,21.40
2018-06-23T05:18:09.190Z,21.40
2018-06-23T05:18:40.887Z,21.40
2018-06-23T05:19:12.617Z,21.40
2018-06-23T05:19:44.322Z,21.40
2018-06-23T05:20:16.062Z,21.40
2018-06-23T05:20:47.769Z,21.50
2018-06-23T05:21:19.495Z,21.50
2018-06-23T05:21:51.286Z,21.40
2018-06-23T05:22:23.004Z,21.40
2018-06-23T05:22:54.713Z,21.40
2018-06-23T05:23:26.438Z,21.40
2018-06-23T05:23:58.155Z,21.40
2018-06-23T05:24:29.878Z,21.40
2018-06-23T05:25:01.615Z,21.40
2018-06-23T05:25:33.326Z,21.40
2018-06-23T05:26:05.093Z,21.40
2018-06-23T05:26:36.828Z,21.40
2018-06-23T05:27:08.509Z,21.40
2018-06-23T05:27:40.238Z,21.40
2018-06-23T05:28:11.996Z,21.40
2018-06-23T05:28:43.701Z,21.40
2018-06-23T05:29:15.418Z,21.40
2018-06-23T05:29:47.145Z,21.40
2018-06-23T05:30:18.864Z,21.40
2018-06-23T05:30:50.583Z,21.40
2018-06-23T05:31:22.299Z,21.40
2018-06-23T05:31:54.027Z,21.40
2018-06-23T05:32:25.730Z,21.40
2018-06-23T05:32:57.452Z,21.50
2018-06-23T05:33:29.174Z,21.50
2018-06-23T05:34:00.895Z,21.40
2018-06-23T05:34:32.602Z,21.40
2018-06-23T05:35:04.315Z,21.40
2018-06-23T05:35:36.043Z,21.40
2018-06-23T05:36:07.770Z,21.50
2018-06-23T05:36:39.482Z,21.40
2018-06-23T05:37:11.247Z,21.50
2018-06-23T05:37:42.966Z,21.50
2018-06-23T05:38:14.699Z,21.50
2018-06-23T05:38:46.402Z,21.40
2018-06-23T05:39:18.124Z,21.40
2018-06-23T05:39:49.841Z,21.50
2018-06-23T05:40:21.566Z,21.50
2018-06-23T05:40:53.302Z,21.50
2018-06-23T05:41:25.001Z,21.50
2018-06-23T05:41:56.732Z,21.50
2018-06-23T05:42:28.491Z,21.50
2018-06-23T05:43:00.238Z,21.50
2018-06-23T05:43:31.980Z,21.50
2018-06-23T05:44:03.713Z,21.50
2018-06-23T05:44:35.422Z,21.50
2018-06-23T05:45:07.145Z,21.50
2018-06-23T05:45:38.861Z,21.50
2018-06-23T05:46:10.584Z,21.50
2018-06-23T05:46:42.295Z,21.50
2018-06-23T05:47:14.018Z,21.50
2018-06-23T05:47:45.728Z,21.50
2018-06-23T05:48:17.467Z,21.50
2018-06-23T05:48:49.171Z,21.50
2018-06-23T05:49:20.883Z,21.50
2018-06-23T05:49:52.617Z,21.50
2018-06-23T05:50:24.346Z,21.50
2018-06-23T05:50:56.065Z,21.50
2018-06-23T05:51:27.876Z,21.50
2018-06-23T05:51:59.588Z,21.50
2018-06-23T05:52:31.297Z,21.50
2018-06-23T05:53:03.064Z,21.40
2018-06-23T05:53:34.774Z,21.50
2018-06-23T05:54:06.520Z,21.50
2018-06-23T05:54:38.250Z,21.50
2018-06-23T05:55:09.975Z,21.50
2018-06-23T05:55:41.729Z,21.50
2018-06-23T05:56:13.454Z,21.50
2018-06-23T05:56:45.167Z,21.50
2018-06-23T05:57:16.912Z,21.50
2018-06-23T05:57:48.643Z,21.50
2018-06-23T05:58:20.366Z,21.50
2018-06-23T05:58:52.094Z,21.50
2018-06-23T05:59:23.795Z,21.50
2018-06-23T05:59:55.499Z,21.50
2018-06-23T06:00:27.239Z,21.50
2018-06-23T06:00:58.960Z,21.50
2018-06-23T06:01:30.672Z,21.50
2018-06-23T06:02:02.403Z,21.50
2018-06-23T06:02:34.145Z,21.50
2018-06-23T06:03:05.870Z,21.60
2018-06-23T06:03:37.602Z,21.50
2018-06-23T06:04:09.315Z,21.60
2018-06-23T06:04:41.030Z,21.60
2018-06-23T06:05:12.749Z,21.60
2018-06-23T06:05:44.469Z,21.60
2018-06-23T06:06:16.212Z,21.60
2018-06-23T06:06:47.902Z,21.60
2018-06-23T06:07:19.631Z,21.60
2018-06-23T06:07:51.379Z,21.60
2018-06-23T06:08:23.083Z,21.60
2018-06-23T06:08:54.813Z,21.60
2018-06-23T06:09:26.534Z,21.60
2018-06-23T06:09:58.236Z,21.60
2018-06-23T06:10:29.963Z,21.60
2018-06-23T06:11:01.686Z,21.60
2018-06-23T06:11:33.392Z,21.60
2018-06-23T06:12:05.107Z,21.60
2018-06-23T06:12:36.832Z,21.60
2018-06-23T06:13:08.537Z,21.60
2018-06-23T06:13:40.263Z,21.70
2018-06-23T06:14:11.980Z,21.70
2018-06-23T06:14:43.702Z,21.70
2018-06-23T06:15:15.418Z,21.70
2018-06-23T06:15:47.178Z,21.60
2018-06-23T06:16:18.895Z,21.70
2018-06-23T06:16:50.648Z,21.60
2018-06-23T06:17:22.364Z,21.70
2018-06-23T06:17:54.098Z,21.60
2018-06-23T06:18:25.818Z,21.70
2018-06-23T06:18:57.554Z,21.70
2018-06-23T06:19:29.279Z,21.70
2018-06-23T06:20:00.999Z,21.70
2018-06-23T06:20:32.725Z,21.70
2018-06-23T06:21:04.440Z,21.70
2018-06-23T06:21:36.158Z,21.70
2018-06-23T06:22:07.894Z,21.70
2018-06-23T06:22:39.620Z,21.70
2018-06-23T06:23:11.326Z,21.70
2018-06-23T06:23:43.093Z,21.70
2018-06-23T06:24:14.758Z,21.70
2018-06-23T06:24:46.474Z,21.70
2018-06-23T06:25:18.195Z,21.70
2018-06-23T06:25:49.910Z,21.70
2018-06-23T06:26:21.659Z,21.70
2018-06-23T06:26:53.349Z,21.70
2018-06-23T06:27:25.074Z,21.70
2018-06-23T06:27:56.811Z,21.70
2018-06-23T06:28:28.568Z,21.70
2018-06-23T06:29:00.311Z,21.70
2018-06-23T06:29:32.065Z,21.70
2018-06-23T06:30:03.767Z,21.70
2018-06-23T06:30:35.508Z,21.70
2018-06-23T06:31:07.243Z,21.70
2018-06-23T06:31:38.984Z,21.70
2018-06-23T06:32:10.714Z,21.70
2018-06-23T06:32:42.484Z,21.70
2018-06-23T06:33:14.205Z,21.70
2018-06-23T06:33:45.921Z,21.70
2018-06-23T06:34:17.674Z,21.80
2018-06-23T06:34:49.358Z,21.70
2018-06-23T06:35:21.069Z,21.80
2018-06-23T06:35:52.832Z,21.80
2018-06-23T06:36:24.555Z,21.80
2018-06-23T06:36:56.271Z,21.80
2018-06-23T06:37:27.987Z,21.80
2018-06-23T06:37:59.701Z,21.70
2018-06-23T06:38:31.450Z,21.80
2018-06-23T06:39:03.187Z,21.80
2018-06-23T06:39:34.913Z,21.80
2018-06-23T06:40:06.677Z,21.70
2018-06-23T06:40:38.442Z,21.70
2018-06-23T06:41:10.146Z,21.80
2018-06-23T06:41:41.864Z,21.80
2018-06-23T06:42:13.585Z,21.80
2018-06-23T06:42:45.305Z,21.80
2018-06-23T06:43:17.027Z,21.80
2018-06-23T06:43:48.741Z,21.80
2018-06-23T06:44:20.466Z,21.80
2018-06-23T06:44:52.169Z,21.80
2018-06-23T06:45:23.893Z,21.80
2018-06-23T06:45:55.613Z,21.80
2018-06-23T06:46:27.347Z,21.80
2018-06-23T06:46:59.052Z,21.80
2018-06-23T06:47:30.806Z,21.80
2018-06-23T06:48:02.508Z,21.80
2018-06-23T06:48:34.232Z,21.80
2018-06-23T06:49:06.009Z,21.80
2018-06-23T06:49:37.713Z,21.80
2018-06-23T06:50:09.445Z,21.80
2018-06-23T06:50:41.163Z,21.80